• Join FlightAware (Why Join?)
  • Login
  • US Flag 
04:30AM EST


 

Airport Tracker/Info


-or-


 

Live Flight TrackerFlight Track Log ✈ EGF4269 ✈ 27-May-2013 ✈ KORD - KAZO

Flight Track Log - Related Links

Times and Time Zones

All times are in EDT time to prevent confusion due to time zone crossing. See the EGF4269 flight status page for this flight to view local times or setup timezone preferences in your user account.

Time Position Orientation Groundspeed Altitude Reporting Facility
EDT Latitude Longitude Course Direction KTS MPH feet Rate Location/Type
10:42PM 42.0167 -87.8333 77° East 211 243 3,100  Level Chicago TRACON
10:42PM 42.0283 -87.8114 54° Northeast 217 250 3,700 1,980 Climbing Chicago Center
10:43PM 42.0553 -87.7247 67° East 238 274 5,800 2,160 Climbing Chicago Center
10:44PM 42.0387 -87.5026 84° East  Level FlightAware Approximate
10:44PM 42.0697 -87.6158 80° East 290 334 8,200  Level Chicago Center
10:45PM 42.0508 -87.3615 78° East  Level FlightAware Approximate
10:45PM 42.0778 -87.4978 85° East 313 360 10,300  Level Chicago Center
10:46PM 42.0722 -87.2225 78° East  Level FlightAware Approximate
10:46PM 42.0897 -87.3439 84° East 341 392 12,400  Level Chicago Center
10:47PM 42.0873 -87.1262 77° East  Level FlightAware Approximate
10:47PM 42.1008 -87.1994 84° East 381 438 13,400  Level Chicago Center
10:48PM 42.1122 -87.0469 84° East 404 465 14,500 1,200 Climbing Chicago Center
10:49PM 42.1178 -86.8872 87° East 423 487 15,900 1,140 Climbing Chicago Center
10:51PM 42.1231 -86.7297 87° East 424 488 16,900 540 Climbing Chicago Center
10:52PM 42.1292 -86.5744 87° East 439 505 17,000 -780 Climbing Chicago Center
10:53PM 42.1344 -86.4119 87° East 437 503 15,400 -1,920 Descending Chicago Center
10:54PM 42.1394 -86.2550 87° East 424 488 13,200 -2,220 Descending Chicago Center
10:55PM 42.0994 -86.0919 108° East 387 445 11,000 -1,560 Descending Chicago Center
10:56PM 42.0769 -85.9678 104° East 343 395 10,100 -1,440 Descending Chicago Center
10:57PM 42.0683 -85.8586 96° East 299 344 8,100 -2,460 Descending Chicago Center
10:58PM 42.0633 -85.7539 94° East 286 329 5,200 -2,340 Descending Chicago Center
10:59PM 42.0603 -85.6569 92° East 269 310 3,400 -1,140 Descending Chicago Center
11:00PM 42.0686 -85.5656 83° East 261 300 3,000 -420 Descending Chicago Center